Pagina principală
METAR-TAF:

METAR-TAF

Aeroporturi :

Woomera, Australia

Latitudine: 31-08S, longitudine: 136-49E, elevație: 165 m

Observații meteo curente

Raportul a fost făcut în urmă cu 26 de minute, la 09:00 UTC
Vânt 16 kt de la Sud/Sud-vest
Temperatură 25°C
Umiditate 44%
Presiune 1012 hPa
Vizibilitate de 10 km sau mai mult

METAR: YPWR 290900Z AUTO 21016KT 9999 // NCD 25/12 Q1012

Ora: 19:56 (09:26 UTC)

Prognoză

Raportul a fost făcut în urmă cu 4 ore și 19 de minute, la 05:07 UTC
Prognoză valabilă de la 29 ora 06 UTC la 30 ora 00 UTC
Vânt 12 kt de la Sud-vest
Vizibilitate de 10 km sau mai mult
nu există nori sub 1.500 m și nici cumulonimbus
De la 29 ora 1400 UTC
Vânt 14 kt de la Sud
Vizibilitate de 10 km sau mai mult
nu există nori sub 1.500 m și nici cumulonimbus

TAF: YPWR 290507Z 2906/3000 22012KT CAVOK FM291400 18014KT CAVOK

Observații și prognoze meteo pentru peste 4.000 de aeroporturi (rapoarte METAR și TAF).

Stațiile disponibile sunt reprezentate pe hartă prin puncte galbene și roșii.

Țineți indicatorul mouse-ului pe punctul dorit pentru a vedea denumirea stației.

Apoi, faceți clic pentru a vedea observațiile și prognozele meteorologice.

Pentru a schimba harta: Pentru mărire, faceți clic pe butoanele verzi cu cruce neagră; pentru micșorare, pe butonul verde cu o liniuță; pentru hărți învecinate, pe săgețile verzi.


METAR-TAF: